Flight Track Log - Related Links

Times and Time Zones

All times are in EDT time to prevent confusion due to time zone crossing. See the DAL1915 flight status page for this flight to view local times or setup timezone preferences in your user account.

Time Position Orientation Groundspeed Altitude Reporting Facility
EDT Latitude Longitude Course Direction KTS MPH feet Rate Location/Type
Mon 10:32:01 PM 33.6500 -84.4833 246° West 193 222 3,000  Level Atlanta TRACON
Mon 10:33:01 PM 33.6667 -84.5667 284° West 266 306 5,200 2,705 Climbing Atlanta TRACON
Mon 10:34:54 PM 33.6942 -84.7331 281° West 284 327 10,800 2,462 Climbing Atlanta Center
Mon 10:35:54 PM 33.6769 -84.8350 259° West 297 342 12,300 1,800 Climbing Atlanta Center
Mon 10:36:00 PM 33.7210 -84.7015 234° Southwest  Level FlightAware Approximate
Mon 10:36:54 PM 33.6489 -84.9547 254° West 345 397 14,400  Level Atlanta Center
Mon 10:37:00 PM 33.6457 -84.8282 246° West  Level FlightAware Approximate
Mon 10:37:54 PM 33.6250 -85.0792 257° West 375 432 16,700  Level Atlanta Center
Mon 10:38:54 PM 33.6031 -85.1936 257° West 389 448 18,200 1,750 Climbing Atlanta Center
Mon 10:39:54 PM 33.5789 -85.3278 258° West 401 461 20,200 1,850 Climbing Atlanta Center
Mon 10:40:54 PM 33.5503 -85.4619 256° West 418 481 21,900 1,650 Climbing Atlanta Center
Mon 10:41:54 PM 33.5236 -85.5986 257° West 424 488 23,500 1,550 Climbing Atlanta Center
Mon 10:42:54 PM 33.4944 -85.7453 257° West 435 501 25,000 1,400 Climbing Atlanta Center
Mon 10:43:54 PM 33.4653 -85.8817 256° West 440 506 26,300 1,200 Climbing Atlanta Center
Mon 10:44:54 PM 33.4339 -86.0278 256° West 440 506 27,400 1,100 Climbing Atlanta Center
Mon 10:45:54 PM 33.4019 -86.1814 256° West 456 525 28,500 1,300 Climbing Atlanta Center
Mon 10:46:54 PM 33.3700 -86.3372 256° West 475 547 30,000 1,600 Climbing Atlanta Center
Mon 10:47:54 PM 33.3333 -86.5003 255° West 475 547 31,700 1,600 Climbing Atlanta Center
Mon 10:48:54 PM 33.3011 -86.6511 256° West 470 541 33,200 1,400 Climbing Atlanta Center
Mon 10:49:54 PM 33.2794 -86.7819 259° West 470 541 34,500 1,200 Climbing Atlanta Center
Mon 10:50:54 PM 33.2469 -86.9300 255° West 470 541 35,600 950 Climbing Atlanta Center
Mon 10:51:54 PM 33.2075 -87.0900 254° West 460 529 36,400 791 Climbing Atlanta Center
Mon 10:53:56 PM 33.1456 -87.3825 256° West 471 542 38,000 527 Climbing Memphis Center
Mon 10:54:56 PM 33.1117 -87.5397 256° West 466 536 38,000  Level Memphis Center
Mon 10:55:56 PM 33.0775 -87.6897 255° West 460 529 38,000  Level Memphis Center
Mon 10:56:56 PM 33.0472 -87.8392 256° West 460 529 38,000  Level Memphis Center
Mon 10:57:56 PM 33.0147 -87.9889 256° West 460 529 38,000  Level Memphis Center
Mon 10:58:56 PM 32.9878 -88.1208 256° West 460 529 38,000  Level Memphis Center
Mon 10:59:56 PM 32.9550 -88.2703 255° West 460 529 38,000  Level Memphis Center
Mon 11:00:56 PM 32.9178 -88.4319 255° West 460 529 38,000  Level Memphis Center
Mon 11:01:56 PM 32.8847 -88.5786 255° West 460 529 38,000  Level Memphis Center
Mon 11:02:56 PM 32.8511 -88.7228 255° West 454 522 38,000  Level Memphis Center
Mon 11:03:56 PM 32.8153 -88.8692 254° West 454 522 38,000  Level Memphis Center
Mon 11:04:56 PM 32.7814 -89.0131 254° West 454 522 38,000  Level Memphis Center
Mon 11:05:56 PM 32.7494 -89.1544 255° West 454 522 38,000  Level Memphis Center
Mon 11:07:00 PM 32.7124 -89.3044 254° West  Level FlightAware Approximate
Mon 11:07:56 PM 32.6789 -89.4442 254° West 454 522 38,000  Level Memphis Center
Mon 11:08:56 PM 32.6444 -89.5900 254° West 454 522 38,000  Level Memphis Center
Mon 11:09:56 PM 32.6078 -89.7358 253° West 454 522 38,000  Level Memphis Center
Mon 11:10:56 PM 32.5750 -89.8814 255° West 454 522 38,000  Level Memphis Center
Mon 11:11:56 PM 32.5400 -90.0294 254° West 454 522 38,000  Level Memphis Center
Mon 11:12:56 PM 32.5069 -90.1750 255° West 454 522 38,000  Level Memphis Center
Mon 11:13:56 PM 32.5008 -90.3253 267° West 454 522 38,000  Level Memphis Center
Mon 11:14:56 PM 32.5008 -90.4756 270° West 454 522 38,000  Level Memphis Center
Mon 11:15:56 PM 32.4983 -90.6233 269° West 454 522 38,000  Level Memphis Center
Mon 11:16:56 PM 32.4939 -90.7736 268° West 459 528 38,000  Level Memphis Center
Mon 11:17:56 PM 32.4911 -90.9214 269° West 459 528 38,000  Level Memphis Center
Mon 11:18:56 PM 32.4861 -91.0739 268° West 459 528 38,000  Level Memphis Center
Mon 11:20:34 PM 32.4822 -91.2967 269° West 457 526 38,000  Level Fort Worth Center
Mon 11:21:34 PM 32.4789 -91.4444 269° West 457 526 38,000  Level Fort Worth Center
Mon 11:22:34 PM 32.4753 -91.5925 268° West 457 526 38,000  Level Fort Worth Center
Mon 11:23:34 PM 32.4703 -91.7553 268° West 463 533 38,000  Level Fort Worth Center
Mon 11:24:34 PM 32.4644 -91.9033 267° West 463 533 38,000  Level Fort Worth Center
Mon 11:25:34 PM 32.4625 -92.0511 269° West 463 533 38,000  Level Fort Worth Center
Mon 11:26:34 PM 32.4581 -92.1967 268° West 463 533 38,000  Level Fort Worth Center
Mon 11:27:34 PM 32.4517 -92.3472 267° West 463 533 38,000  Level Fort Worth Center
Mon 11:28:34 PM 32.4506 -92.4753 269° West 463 533 38,000  Level Fort Worth Center
Mon 11:29:34 PM 32.4436 -92.6233 267° West 450 518 38,000  Level Fort Worth Center
Mon 11:30:34 PM 32.4369 -92.7761 267° West 455 524 38,000  Level Fort Worth Center
Mon 11:31:34 PM 32.4297 -92.9242 267° West 460 529 38,000  Level Fort Worth Center
Mon 11:32:34 PM 32.4225 -93.0747 267° West 465 535 38,000  Level Fort Worth Center
Mon 11:33:34 PM 32.4150 -93.2225 267° West 460 529 38,000  Level Fort Worth Center
Mon 11:34:34 PM 32.4097 -93.3753 268° West 460 529 38,000  Level Fort Worth Center
Mon 11:35:34 PM 32.3997 -93.5283 266° West 460 529 38,000  Level Fort Worth Center
Mon 11:36:34 PM 32.3833 -93.6742 262° West 460 529 38,000  Level Fort Worth Center
Mon 11:37:34 PM 32.3564 -93.8253 258° West 460 529 38,000  Level Fort Worth Center
Mon 11:38:34 PM 32.3272 -93.9739 257° West 470 541 38,000  Level Fort Worth Center
Mon 11:39:34 PM 32.2978 -94.1250 257° West 470 541 38,000  Level Fort Worth Center
Mon 11:40:34 PM 32.2681 -94.2711 257° West 470 541 38,000  Level Fort Worth Center
Mon 11:41:34 PM 32.2425 -94.4242 259° West 470 541 38,000  Level Fort Worth Center
Mon 11:42:34 PM 32.2106 -94.5725 256° West 475 547 38,000  Level Fort Worth Center
Mon 11:43:34 PM 32.1872 -94.7403 261° West 475 547 38,000  Level Fort Worth Center
Mon 11:44:34 PM 32.1569 -94.8908 257° West 470 541 38,000  Level Fort Worth Center
Mon 11:45:34 PM 32.1283 -95.0411 257° West 470 541 38,000  Level Fort Worth Center
Mon 11:46:34 PM 32.0978 -95.1892 256° West 470 541 38,000  Level Fort Worth Center
Mon 11:47:34 PM 32.0669 -95.3419 257° West 470 541 38,000  Level Fort Worth Center
Mon 11:48:34 PM 32.0358 -95.4897 256° West 470 541 38,000  Level Fort Worth Center
Mon 11:49:34 PM 32.0125 -95.6078 257° West 470 541 38,000  Level Fort Worth Center
Mon 11:50:34 PM 31.9792 -95.7675 256° West 470 541 38,000  Level Fort Worth Center
Mon 11:51:34 PM 31.9478 -95.9347 258° West 470 541 38,000  Level Fort Worth Center
Mon 11:52:34 PM 31.9161 -96.0819 256° West 470 541 38,000  Level Fort Worth Center
Mon 11:53:34 PM 31.8864 -96.2267 256° West 470 541 38,000  Level Fort Worth Center
Mon 11:54:34 PM 31.8542 -96.3617 254° West 470 541 38,000  Level Fort Worth Center
Mon 11:55:34 PM 31.8219 -96.5136 256° West 476 548 38,000  Level Fort Worth Center
Mon 11:56:34 PM 31.8228 -96.6775 270° West 465 535 38,000  Level Fort Worth Center
Mon 11:57:34 PM 31.8383 -96.8239 277° West 455 524 38,000  Level Fort Worth Center
Mon 11:58:34 PM 31.8492 -96.9756 275° West 464 534 38,000  Level Fort Worth Center
Mon 11:59:34 PM 31.8622 -97.1075 277° West 464 534 38,000  Level Fort Worth Center
Tue 12:00:34 AM 31.8750 -97.2544 276° West 464 534 38,000  Level Fort Worth Center
Tue 12:01:34 AM 31.8875 -97.4036 276° West 458 527 38,000  Level Fort Worth Center
Tue 12:02:34 AM 31.8981 -97.5528 275° West 458 527 38,000  Level Fort Worth Center
Tue 12:03:34 AM 31.9103 -97.7047 275° West 463 533 38,000  Level Fort Worth Center
Tue 12:04:34 AM 31.9222 -97.8492 276° West 463 533 38,000  Level Fort Worth Center
Tue 12:05:34 AM 31.9342 -97.9983 275° West 463 533 38,000  Level Fort Worth Center
Tue 12:06:34 AM 31.9419 -98.1478 274° West 463 533 38,000  Level Fort Worth Center
Tue 12:07:34 AM 31.9514 -98.2997 274° West 465 535 38,000  Level Fort Worth Center
Tue 12:08:34 AM 31.9628 -98.4297 276° West 465 535 38,000  Level Fort Worth Center
Tue 12:09:34 AM 31.9697 -98.5864 273° West 452 520 38,000  Level Fort Worth Center
Tue 12:10:34 AM 31.9808 -98.7383 275° West 457 526 38,000  Level Fort Worth Center
Tue 12:11:34 AM 31.9917 -98.8856 275° West 457 526 38,000  Level Fort Worth Center
Tue 12:12:34 AM 32.0003 -99.0350 274° West 462 532 38,000  Level Fort Worth Center
Tue 12:13:34 AM 32.0108 -99.1797 275° West 462 532 38,000  Level Fort Worth Center
Tue 12:14:34 AM 32.0214 -99.3269 275° West 462 532 38,000  Level Fort Worth Center
Tue 12:15:34 AM 32.0314 -99.4742 275° West 462 532 38,000  Level Fort Worth Center
Tue 12:16:34 AM 32.0411 -99.6386 274° West 462 532 38,000  Level Fort Worth Center
Tue 12:17:34 AM 32.0489 -99.7858 274° West 462 532 38,000  Level Fort Worth Center
Tue 12:18:34 AM 32.0564 -99.9333 273° West 462 532 38,000  Level Fort Worth Center
Tue 12:19:34 AM 32.0658 -100.0856 274° West 462 532 38,000  Level Fort Worth Center
Tue 12:20:34 AM 32.0750 -100.2353 274° West 462 532 38,000  Level Fort Worth Center
Tue 12:21:34 AM 32.0842 -100.3828 274° West 462 532 38,000  Level Fort Worth Center
Tue 12:22:34 AM 32.0931 -100.5350 274° West 462 532 38,000  Level Fort Worth Center
Tue 12:23:34 AM 32.1017 -100.6847 274° West 462 532 38,000  Level Fort Worth Center
Tue 12:24:34 AM 32.1103 -100.8397 274° West 462 532 38,000  Level Fort Worth Center
Tue 12:25:34 AM 32.1189 -100.9725 274° West 467 537 38,000  Level Fort Worth Center
Tue 12:26:34 AM 32.1272 -101.1225 274° West 462 532 38,000 -450 Level Fort Worth Center
Tue 12:27:34 AM 32.1350 -101.2797 273° West 468 539 37,100 -1,050 Descending Fort Worth Center
Tue 12:28:34 AM 32.1425 -101.4347 273° West 473 544 35,900 -550 Descending Fort Worth Center
Tue 12:29:34 AM 32.1522 -101.5872 274° West 473 544 36,000 50 Climbing Fort Worth Center
Tue 12:30:34 AM 32.1569 -101.7567 272° West 478 550 36,000  Level Fort Worth Center
Tue 12:31:34 AM 32.1603 -101.8967 272° West 478 550 36,000  Level Fort Worth Center
Tue 12:32:34 AM 32.1653 -102.0489 272° West 478 550 36,000 -400 Level Fort Worth Center
Tue 12:33:34 AM 32.1700 -102.2039 272° West 478 550 35,200 -900 Descending Fort Worth Center
Tue 12:34:34 AM 32.1786 -102.3589 274° West 478 550 34,200 -600 Descending Fort Worth Center
Tue 12:35:34 AM 32.1847 -102.5139 273° West 478 550 34,000 -100 Descending Fort Worth Center
Tue 12:36:34 AM 32.1908 -102.6711 273° West 478 550 34,000  Level Fort Worth Center
Tue 12:38:43 AM 32.2044 -103.0128 273° West 475 547 34,000  Level Albuquerque Center
Tue 12:39:44 AM 32.2097 -103.1683 272° West 474 545 34,000  Level Albuquerque Center
Tue 12:40:44 AM 32.2136 -103.3228 272° West 473 544 34,000  Level Albuquerque Center
Tue 12:41:45 AM 32.2200 -103.4769 273° West 471 542 34,000  Level Albuquerque Center
Tue 12:42:46 AM 32.2231 -103.6303 271° West 469 540 34,000  Level Albuquerque Center
Tue 12:43:47 AM 32.2289 -103.7847 273° West 471 542 34,000  Level Albuquerque Center
Tue 12:44:48 AM 32.2325 -103.9386 272° West 470 541 34,000  Level Albuquerque Center
Tue 12:45:49 AM 32.2356 -104.0928 271° West 470 541 34,000  Level Albuquerque Center
Tue 12:46:50 AM 32.2392 -104.2464 272° West 470 541 34,000  Level Albuquerque Center
Tue 12:47:50 AM 32.2436 -104.4006 272° West 470 541 34,000  Level Albuquerque Center
Tue 12:48:51 AM 32.2464 -104.5536 271° West 468 539 34,000  Level Albuquerque Center
Tue 12:49:52 AM 32.2492 -104.7136 271° West 467 537 34,000  Level Albuquerque Center
Tue 12:50:53 AM 32.2525 -104.8650 272° West 464 534 34,000  Level Albuquerque Center
Tue 12:51:54 AM 32.2550 -105.0164 271° West 463 533 34,000  Level Albuquerque Center
Tue 12:52:54 AM 32.2592 -105.1667 272° West 462 532 34,000  Level Albuquerque Center
Tue 12:53:55 AM 32.2619 -105.3150 271° West 463 533 34,000  Level Albuquerque Center
Tue 12:54:56 AM 32.2672 -105.4981 272° West 467 537 34,000  Level Albuquerque Center
Tue 12:55:57 AM 32.2708 -105.6517 272° West 464 534 34,000  Level Albuquerque Center
Tue 12:56:57 AM 32.2717 -105.8044 270° West 466 536 34,000  Level Albuquerque Center
Tue 12:57:58 AM 32.2728 -105.9564 271° West 465 535 34,000  Level Albuquerque Center
Tue 12:58:59 AM 32.2753 -106.1092 271° West 468 539 34,000 -49 Level Albuquerque Center
Tue 01:00:01 AM 32.2769 -106.2597 271° West 465 535 33,900  Descending Albuquerque Center
Tue 01:01:01 AM 32.2783 -106.4139 271° West 469 540 34,000 50 Climbing Albuquerque Center
Tue 01:02:02 AM 32.2806 -106.5672 271° West 467 537 34,000  Level Albuquerque Center
Tue 01:03:03 AM 32.2814 -106.7194 270° West 464 534 34,000  Level Albuquerque Center
Tue 01:04:03 AM 32.2831 -106.8950 271° West 467 537 34,000  Level Albuquerque Center
Tue 01:05:04 AM 32.2836 -107.0475 270° West 465 535 34,000  Level Albuquerque Center
Tue 01:06:05 AM 32.2817 -107.2008 269° West 468 539 34,000  Level Albuquerque Center
Tue 01:07:06 AM 32.2819 -107.3558 270° West 472 543 34,000  Level Albuquerque Center
Tue 01:08:06 AM 32.2819 -107.5086 270° West 468 539 34,000  Level Albuquerque Center
Tue 01:09:07 AM 32.2831 -107.6486 271° West 463 533 34,000  Level Albuquerque Center
Tue 01:10:08 AM 32.2817 -107.8025 269° West 466 536 34,000  Level Albuquerque Center
Tue 01:11:08 AM 32.2808 -107.9542 270° West 463 533 34,000  Level Albuquerque Center
Tue 01:12:09 AM 32.2786 -108.1053 269° West 461 531 34,000  Level Albuquerque Center
Tue 01:13:10 AM 32.2789 -108.2553 270° West 459 528 34,000  Level Albuquerque Center
Tue 01:14:11 AM 32.2781 -108.4067 270° West 460 529 34,000  Level Albuquerque Center
Tue 01:15:11 AM 32.2894 -108.5658 275° West 460 529 34,000  Level Albuquerque Center
Tue 01:16:12 AM 32.3119 -108.7167 280° West 464 534 34,000  Level Albuquerque Center
Tue 01:17:13 AM 32.3344 -108.8661 280° West 462 532 34,000  Level Albuquerque Center
Tue 01:18:13 AM 32.3572 -109.0153 280° West 460 529 34,000  Level Albuquerque Center
Tue 01:19:14 AM 32.3814 -109.1647 281° West 461 531 34,000  Level Albuquerque Center
Tue 01:20:15 AM 32.4039 -109.3142 280° West 460 529 34,000  Level Albuquerque Center
Tue 01:21:15 AM 32.4261 -109.4636 280° West 461 531 34,000 -50 Level Albuquerque Center
Tue 01:22:16 AM 32.4475 -109.6119 280° West 458 527 33,900 -590 Descending Albuquerque Center
Tue 01:23:17 AM 32.4697 -109.7631 280° West 465 535 32,800 -1,140 Descending Albuquerque Center
Tue 01:24:17 AM 32.4917 -109.9139 280° West 466 536 31,600 -1,240 Descending Albuquerque Center
Tue 01:25:18 AM 32.5139 -110.0642 280° West 464 534 30,300 -1,279 Descending Albuquerque Center
Tue 01:26:19 AM 32.5356 -110.2158 280° West 466 536 29,000 -2,083 Descending Albuquerque Center
Tue 01:27:19 AM 32.5608 -110.3928 280° West 464 534 26,100 -2,430 Descending Albuquerque Center
Tue 01:28:20 AM 32.5806 -110.5394 279° West 456 525 24,100 -1,574 Descending Albuquerque Center
Tue 01:29:21 AM 32.6233 -110.6619 293° West 415 478 22,900 -1,438 Descending Albuquerque Center
Tue 01:30:21 AM 32.6828 -110.7694 303° West 395 455 21,200 -1,686 Descending Albuquerque Center
Tue 01:31:22 AM 32.7400 -110.8717 304° West 379 436 19,500 -1,636 Descending Albuquerque Center
Tue 01:32:22 AM 32.7953 -110.9744 303° West 370 426 17,900 -1,587 Descending Albuquerque Center
Tue 01:33:23 AM 32.8486 -111.0772 302° West 368 423 16,300 -1,279 Descending Albuquerque Center
Tue 01:34:24 AM 32.9008 -111.1781 302° West 360 414 15,300 -1,388 Descending Albuquerque Center
Tue 01:35:24 AM 32.9453 -111.2758 298° West 339 390 13,500 -1,438 Descending Albuquerque Center
Tue 01:36:25 AM 32.9881 -111.3725 298° West 331 381 12,400 -1,041 Descending Albuquerque Center
Tue 01:37:25 AM 33.0294 -111.4608 299° West 309 356 11,400 -1,140 Descending Albuquerque Center
Tue 01:38:26 AM 33.0733 -111.5397 304° West 289 333 10,100 -984 Descending Albuquerque Center
Tue 01:39:27 AM 33.1361 -111.5931 325° Northwest 282 325 9,400 -968 Descending Albuquerque Center
Tue 01:40:30 AM 33.2167 -111.6333 337° Northwest 281 323 8,100 -769 Descending Phoenix TRACON
Tue 01:41:24 AM 33.2833 -111.6667 337° Northwest 250 288 7,900 -706 Descending Phoenix TRACON
Tue 01:42:29 AM 33.3361 -111.6833 345° North 230 265 6,700 -1,008 Descending Albuquerque Center
Tue 01:43:29 AM 33.3911 -111.6981 347° North 207 238 5,800 -1,041 Descending Albuquerque Center
Tue 01:44:30 AM 33.4186 -111.7483 303° West 180 207 4,600 -1,140 Descending Albuquerque Center
Tue 01:45:30 AM 33.4411 -111.7994 298° West 176 203 3,500 -793 Descending Albuquerque Center
Tue 01:46:31 AM 33.4406 -111.8586 269° West 175 201 3,000 -595 Descending Albuquerque Center
Tue 01:47:31 AM 33.4408 -111.9164 270° West 173 199 2,300 -694 Descending Albuquerque Center
Tue 01:48:32 AM 33.4408 -111.9631 270° West 141 162 1,600 -590 Descending Albuquerque Center
Tue 01:49:33 AM 33.4389 -112.0142 267° West 134 154 1,100 -492 Descending Albuquerque Center

Login

Don't have an account? Register now (free) for customized features, flight alerts, and more!